Time,TemperatureF,DewpointF,PressureIn,WindDirection,WindDirectionDegrees,WindSpeedMPH,WindSpeedGustMPH,Humidity,HourlyPrecipIn,Conditions,Clouds,dailyrainin,SoftwareType,DateUTC
2013-05-29 00:01:00,63.5,61.4,30.25,SSE,156,0.0,0.0,93,0.00,,,0.00,Wunderground v.1.15,2013-05-29 04:01:00,
2013-05-29 00:03:00,63.4,61.3,30.25,SSE,156,0.0,0.0,93,0.00,,,0.00,Wunderground v.1.15,2013-05-29 04:03:00,
2013-05-29 00:04:00,63.4,61.3,30.25,SSE,156,0.0,0.0,93,0.00,,,0.00,Wunderground v.1.15,2013-05-29 04:04:00,
2013-05-29 00:05:00,63.4,61.3,30.25,SSE,156,0.0,0.0,93,0.00,,,0.00,Wunderground v.1.15,2013-05-29 04:05:00,
2013-05-29 00:07:00,63.3,61.2,30.25,SSE,156,0.0,0.0,93,0.00,,,0.00,Wunderground v.1.15,2013-05-29 04:07:00,
2013-05-29 00:12:00,63.2,61.1,30.25,SSE,156,0.0,0.0,93,0.00,,,0.00,Wunderground v.1.15,2013-05-29 04:12:00,
2013-05-29 00:17:00,63.0,61.2,30.25,SSE,157,0.0,0.0,94,0.00,,,0.00,Wunderground v.1.15,2013-05-29 04:17:00,
2013-05-29 00:22:00,62.8,61.0,30.25,SSE,156,0.0,0.0,94,0.00,,,0.00,Wunderground v.1.15,2013-05-29 04:22:00,
2013-05-29 00:27:00,62.7,60.9,30.25,SSE,156,0.0,0.0,94,0.00,,,0.00,Wunderground v.1.15,2013-05-29 04:27:00,
2013-05-29 00:32:00,62.5,61.0,30.25,SSE,156,0.0,0.0,95,0.00,,,0.00,Wunderground v.1.15,2013-05-29 04:32:00,
2013-05-29 00:37:00,62.3,60.8,30.25,SSE,156,0.0,0.0,95,0.00,,,0.00,Wunderground v.1.15,2013-05-29 04:37:00,
2013-05-29 00:43:00,62.1,60.7,30.25,SSE,156,0.0,0.0,95,0.00,,,0.00,Wunderground v.1.15,2013-05-29 04:43:00,
2013-05-29 00:48:00,61.9,60.5,30.25,SSE,156,0.0,0.0,95,0.00,,,0.00,Wunderground v.1.15,2013-05-29 04:48:00,
2013-05-29 00:53:00,61.8,60.6,30.25,SSE,156,0.0,0.0,96,0.00,,,0.00,Wunderground v.1.15,2013-05-29 04:53:00,
2013-05-29 00:58:00,61.7,60.5,30.25,SSE,156,0.0,0.0,96,0.00,,,0.00,Wunderground v.1.15,2013-05-29 04:58:00,
2013-05-29 01:04:00,61.6,60.4,30.25,SSE,156,0.0,0.0,96,0.00,,,0.00,Wunderground v.1.15,2013-05-29 05:04:00,
2013-05-29 01:09:00,61.5,60.6,30.25,SSE,156,0.0,0.0,97,0.00,,,0.00,Wunderground v.1.15,2013-05-29 05:09:00,
2013-05-29 01:14:00,61.4,60.8,30.25,SSE,156,0.0,0.0,98,0.00,,,0.00,Wunderground v.1.15,2013-05-29 05:14:00,
2013-05-29 01:19:00,61.3,60.4,30.25,SSE,156,0.0,0.0,97,0.00,,,0.00,Wunderground v.1.15,2013-05-29 05:19:00,
2013-05-29 01:24:00,61.1,60.2,30.25,SSE,156,0.0,0.0,97,0.00,,,0.00,Wunderground v.1.15,2013-05-29 05:24:00,
2013-05-29 01:29:00,60.9,60.0,30.25,SSE,156,0.0,0.0,97,0.00,,,0.00,Wunderground v.1.15,2013-05-29 05:29:00,
2013-05-29 01:34:00,60.7,60.1,30.25,SSE,156,0.0,0.0,98,0.00,,,0.00,Wunderground v.1.15,2013-05-29 05:34:00,
2013-05-29 01:40:00,60.6,60.0,30.25,SSE,156,0.0,0.0,98,0.00,,,0.00,Wunderground v.1.15,2013-05-29 05:40:00,
2013-05-29 01:45:00,60.5,59.9,30.25,SSE,156,0.0,0.0,98,0.00,,,0.00,Wunderground v.1.15,2013-05-29 05:45:00,
2013-05-29 01:50:00,60.4,59.8,30.25,SSE,156,0.0,0.0,98,0.00,,,0.00,Wunderground v.1.15,2013-05-29 05:50:00,
2013-05-29 01:55:00,60.3,59.7,30.25,SSE,156,0.0,0.0,98,0.00,,,0.00,Wunderground v.1.15,2013-05-29 05:55:00,
2013-05-29 02:00:00,60.2,59.6,30.24,SSE,156,0.0,0.0,98,0.00,,,0.00,Wunderground v.1.15,2013-05-29 06:00:00,
2013-05-29 02:05:00,60.1,59.5,30.24,SSE,156,0.0,0.0,98,0.00,,,0.00,Wunderground v.1.15,2013-05-29 06:05:00,
2013-05-29 02:10:00,60.0,59.4,30.24,SSE,156,0.0,0.0,98,0.00,,,0.00,Wunderground v.1.15,2013-05-29 06:10:00,
2013-05-29 02:15:00,59.9,59.3,30.24,SSE,156,0.0,0.0,98,0.00,,,0.00,Wunderground v.1.15,2013-05-29 06:15:00,
2013-05-29 02:20:00,59.9,59.6,30.24,SSE,156,0.0,0.0,99,0.00,,,0.00,Wunderground v.1.15,2013-05-29 06:20:00,
2013-05-29 02:25:00,60.0,60.0,30.24,SSE,159,0.0,1.0,100,0.00,,,0.00,Wunderground v.1.15,2013-05-29 06:25:00,
2013-05-29 02:30:00,60.0,59.7,30.25,SSE,159,0.0,0.0,99,0.00,,,0.00,Wunderground v.1.15,2013-05-29 06:30:00,
2013-05-29 02:35:00,60.0,60.0,30.24,SSE,159,0.0,1.0,100,0.00,,,0.00,Wunderground v.1.15,2013-05-29 06:35:00,
2013-05-29 02:40:00,60.1,60.1,30.24,SSE,159,0.0,0.0,100,0.00,,,0.00,Wunderground v.1.15,2013-05-29 06:40:00,
2013-05-29 02:45:00,60.1,60.1,30.24,SSE,159,0.0,1.0,100,0.00,,,0.00,Wunderground v.1.15,2013-05-29 06:45:00,
2013-05-29 02:50:00,60.0,59.7,30.25,SSE,159,0.0,0.0,99,0.00,,,0.00,Wunderground v.1.15,2013-05-29 06:50:00,
2013-05-29 02:55:00,59.8,59.2,30.25,SSE,159,0.0,0.0,98,0.00,,,0.00,Wunderground v.1.15,2013-05-29 06:55:00,
2013-05-29 03:00:00,59.6,59.3,30.25,SSE,159,0.0,0.0,99,0.00,,,0.00,Wunderground v.1.15,2013-05-29 07:00:00,
2013-05-29 03:05:00,59.5,59.2,30.26,SSE,159,0.0,0.0,99,0.00,,,0.00,Wunderground v.1.15,2013-05-29 07:05:00,
2013-05-29 03:10:00,59.4,59.1,30.25,SSE,159,0.0,0.0,99,0.00,,,0.00,Wunderground v.1.15,2013-05-29 07:10:00,
2013-05-29 03:15:00,59.4,59.4,30.26,SSE,159,0.0,0.0,100,0.00,,,0.00,Wunderground v.1.15,2013-05-29 07:15:00,
2013-05-29 03:20:00,59.4,59.4,30.26,SSE,159,0.0,0.0,100,0.00,,,0.00,Wunderground v.1.15,2013-05-29 07:20:00,
2013-05-29 03:25:00,59.4,59.4,30.26,SSE,159,0.0,0.0,100,0.00,,,0.00,Wunderground v.1.15,2013-05-29 07:25:00,
2013-05-29 03:31:00,59.5,59.5,30.26,SSE,159,0.0,0.0,100,0.00,,,0.00,Wunderground v.1.15,2013-05-29 07:31:00,
2013-05-29 03:36:00,59.5,59.5,30.26,SSE,159,0.0,0.0,100,0.00,,,0.00,Wunderground v.1.15,2013-05-29 07:36:00,
2013-05-29 03:41:00,59.5,59.5,30.26,NE,38,0.0,0.0,100,0.00,,,0.00,Wunderground v.1.15,2013-05-29 07:41:00,
2013-05-29 03:46:00,59.6,59.6,30.27,NE,38,0.0,1.0,100,0.00,,,0.00,Wunderground v.1.15,2013-05-29 07:46:00,
2013-05-29 03:51:00,59.5,59.5,30.27,NE,38,0.0,0.0,100,0.00,,,0.00,Wunderground v.1.15,2013-05-29 07:51:00,
2013-05-29 03:56:00,59.5,59.5,30.27,NE,38,0.0,0.0,100,0.00,,,0.00,Wunderground v.1.15,2013-05-29 07:56:00,
2013-05-29 04:01:00,59.6,59.6,30.27,NE,38,0.0,0.0,100,0.00,,,0.00,Wunderground v.1.15,2013-05-29 08:01:00,
2013-05-29 04:06:00,59.6,59.6,30.28,NE,38,0.0,0.0,100,0.00,,,0.00,Wunderground v.1.15,2013-05-29 08:06:00,
2013-05-29 04:11:00,59.7,59.7,30.28,NE,38,0.0,0.0,100,0.00,,,0.00,Wunderground v.1.15,2013-05-29 08:11:00,
2013-05-29 04:16:00,59.8,59.8,30.27,NE,38,0.0,1.0,100,0.00,,,0.00,Wunderground v.1.15,2013-05-29 08:16:00,
2013-05-29 04:21:00,60.1,60.1,30.27,SE,133,0.0,0.0,100,0.00,,,0.00,Wunderground v.1.15,2013-05-29 08:21:00,
2013-05-29 04:26:00,60.3,60.3,30.27,SE,133,0.0,1.0,100,0.00,,,0.00,Wunderground v.1.15,2013-05-29 08:26:00,
2013-05-29 04:31:00,60.5,60.5,30.27,SE,133,0.0,0.0,100,0.00,,,0.00,Wunderground v.1.15,2013-05-29 08:31:00,
2013-05-29 04:36:00,60.6,60.6,30.27,SE,133,0.0,1.0,100,0.00,,,0.00,Wunderground v.1.15,2013-05-29 08:36:00,
2013-05-29 04:41:00,60.8,60.8,30.27,SE,133,0.0,0.0,100,0.00,,,0.00,Wunderground v.1.15,2013-05-29 08:41:00,
2013-05-29 04:46:00,60.8,60.8,30.27,SE,133,0.0,0.0,100,0.00,,,0.00,Wunderground v.1.15,2013-05-29 08:46:00,
2013-05-29 04:51:00,60.8,60.5,30.27,SE,133,0.0,0.0,99,0.00,,,0.00,Wunderground v.1.15,2013-05-29 08:51:00,
2013-05-29 04:56:00,60.6,60.0,30.27,SE,133,0.0,0.0,98,0.00,,,0.00,Wunderground v.1.15,2013-05-29 08:56:00,
2013-05-29 05:01:00,60.3,59.7,30.27,SE,133,0.0,0.0,98,0.00,,,0.00,Wunderground v.1.15,2013-05-29 09:01:00,
2013-05-29 05:06:00,60.2,59.9,30.27,SE,133,0.0,0.0,99,0.00,,,0.00,Wunderground v.1.15,2013-05-29 09:06:00,
2013-05-29 05:11:00,60.0,59.7,30.27,SE,133,0.0,0.0,99,0.00,,,0.00,Wunderground v.1.15,2013-05-29 09:11:00,
2013-05-29 05:16:00,59.9,59.6,30.27,SE,133,0.0,0.0,99,0.00,,,0.00,Wunderground v.1.15,2013-05-29 09:16:00,
2013-05-29 05:21:00,59.7,59.4,30.27,SE,133,0.0,0.0,99,0.00,,,0.00,Wunderground v.1.15,2013-05-29 09:21:00,
2013-05-29 05:26:00,59.6,59.3,30.27,SE,133,0.0,0.0,99,0.00,,,0.00,Wunderground v.1.15,2013-05-29 09:26:00,
2013-05-29 05:31:00,59.5,59.2,30.27,SE,133,0.0,0.0,99,0.00,,,0.00,Wunderground v.1.15,2013-05-29 09:31:00,
2013-05-29 05:36:00,59.4,59.1,30.27,SE,133,0.0,0.0,99,0.00,,,0.00,Wunderground v.1.15,2013-05-29 09:36:00,
2013-05-29 05:41:00,59.3,59.0,30.27,SE,133,0.0,0.0,99,0.00,,,0.00,Wunderground v.1.15,2013-05-29 09:41:00,
2013-05-29 05:46:00,59.3,59.3,30.27,SE,133,0.0,0.0,100,0.00,,,0.00,Wunderground v.1.15,2013-05-29 09:46:00,
2013-05-29 05:51:00,59.2,59.2,30.27,SE,133,0.0,0.0,100,0.00,,,0.00,Wunderground v.1.15,2013-05-29 09:51:00,
2013-05-29 05:56:00,59.1,58.8,30.27,SE,133,0.0,0.0,99,0.00,,,0.00,Wunderground v.1.15,2013-05-29 09:56:00,
2013-05-29 06:01:00,58.9,58.6,30.27,SE,133,0.0,0.0,99,0.00,,,0.00,Wunderground v.1.15,2013-05-29 10:01:00,
2013-05-29 06:06:00,58.8,58.5,30.27,SE,133,0.0,0.0,99,0.00,,,0.00,Wunderground v.1.15,2013-05-29 10:06:00,
2013-05-29 06:11:00,58.7,58.4,30.28,SE,133,0.0,0.0,99,0.00,,,0.00,Wunderground v.1.15,2013-05-29 10:11:00,
2013-05-29 06:16:00,58.4,58.1,30.28,SE,133,0.0,0.0,99,0.00,,,0.00,Wunderground v.1.15,2013-05-29 10:16:00,
2013-05-29 06:21:00,58.2,57.9,30.28,SE,133,0.0,0.0,99,0.00,,,0.00,Wunderground v.1.15,2013-05-29 10:21:00,
2013-05-29 06:26:00,58.0,57.7,30.28,SE,133,0.0,0.0,99,0.00,,,0.00,Wunderground v.1.15,2013-05-29 10:26:00,
2013-05-29 06:31:00,57.9,57.9,30.28,SE,133,0.0,0.0,100,0.00,,,0.00,Wunderground v.1.15,2013-05-29 10:31:00,
2013-05-29 06:36:00,57.8,57.8,30.28,SE,133,0.0,0.0,100,0.00,,,0.00,Wunderground v.1.15,2013-05-29 10:36:00,
2013-05-29 06:41:00,57.8,57.8,30.29,SE,133,0.0,0.0,100,0.00,,,0.00,Wunderground v.1.15,2013-05-29 10:41:00,
2013-05-29 06:46:00,57.7,57.7,30.28,SE,133,0.0,0.0,100,0.00,,,0.00,Wunderground v.1.15,2013-05-29 10:46:00,
2013-05-29 06:51:00,57.5,57.5,30.29,SE,133,0.0,0.0,100,0.00,,,0.00,Wunderground v.1.15,2013-05-29 10:51:00,
2013-05-29 06:56:00,57.4,57.4,30.29,SE,133,0.0,0.0,100,0.00,,,0.00,Wunderground v.1.15,2013-05-29 10:56:00,
2013-05-29 07:01:00,57.4,57.4,30.29,SE,133,0.0,0.0,100,0.00,,,0.00,Wunderground v.1.15,2013-05-29 11:01:00,
2013-05-29 07:06:00,57.4,57.4,30.29,SE,133,0.0,0.0,100,0.00,,,0.00,Wunderground v.1.15,2013-05-29 11:06:00,
2013-05-29 07:11:00,57.5,57.5,30.29,SE,133,0.0,0.0,100,0.00,,,0.00,Wunderground v.1.15,2013-05-29 11:11:00,
2013-05-29 07:16:00,57.6,57.6,30.29,SE,133,0.0,0.0,100,0.00,,,0.00,Wunderground v.1.15,2013-05-29 11:16:00,
2013-05-29 07:21:00,57.9,57.9,30.29,SE,133,0.0,0.0,100,0.00,,,0.00,Wunderground v.1.15,2013-05-29 11:21:00,
2013-05-29 07:26:00,58.2,58.2,30.29,SE,133,0.0,0.0,100,0.00,,,0.00,Wunderground v.1.15,2013-05-29 11:26:00,
2013-05-29 07:31:00,58.7,58.7,30.30,SE,133,0.0,1.0,100,0.00,,,0.00,Wunderground v.1.15,2013-05-29 11:31:00,
2013-05-29 07:37:00,58.8,58.8,30.30,SE,133,0.0,1.0,100,0.00,,,0.00,Wunderground v.1.15,2013-05-29 11:37:00,
2013-05-29 07:42:00,59.0,59.0,30.29,SE,133,0.0,0.0,100,0.00,,,0.00,Wunderground v.1.15,2013-05-29 11:42:00,
2013-05-29 07:47:00,59.3,59.3,30.30,SE,133,0.0,0.0,100,0.00,,,0.00,Wunderground v.1.15,2013-05-29 11:47:00,
2013-05-29 07:52:00,59.6,59.6,30.30,SE,133,0.0,0.0,100,0.00,,,0.00,Wunderground v.1.15,2013-05-29 11:52:00,
2013-05-29 07:57:00,59.8,59.8,30.30,SE,133,0.0,0.0,100,0.00,,,0.00,Wunderground v.1.15,2013-05-29 11:57:00,
2013-05-29 08:02:00,60.2,60.2,30.30,SE,133,0.0,0.0,100,0.00,,,0.00,Wunderground v.1.15,2013-05-29 12:02:00,
2013-05-29 08:07:00,60.6,60.6,30.30,SE,133,0.0,0.0,100,0.00,,,0.00,Wunderground v.1.15,2013-05-29 12:07:00,
2013-05-29 08:12:00,61.0,61.0,30.30,SE,133,0.0,0.0,100,0.00,,,0.00,Wunderground v.1.15,2013-05-29 12:12:00,
2013-05-29 08:17:00,61.4,61.4,30.30,SE,133,0.0,0.0,100,0.00,,,0.00,Wunderground v.1.15,2013-05-29 12:17:00,
2013-05-29 08:22:00,61.9,61.9,30.30,SE,133,0.0,2.0,100,0.00,,,0.00,Wunderground v.1.15,2013-05-29 12:22:00,
2013-05-29 08:27:00,62.4,62.1,30.30,SE,134,0.0,2.0,99,0.00,,,0.00,Wunderground v.1.15,2013-05-29 12:27:00,
2013-05-29 08:32:00,62.9,62.3,30.30,SE,134,0.0,1.0,98,0.00,,,0.00,Wunderground v.1.15,2013-05-29 12:32:00,
2013-05-29 08:37:00,63.3,62.4,30.30,SE,134,0.0,1.0,97,0.00,,,0.00,Wunderground v.1.15,2013-05-29 12:37:00,
2013-05-29 08:42:00,63.6,62.4,30.31,SE,134,0.0,0.0,96,0.00,,,0.00,Wunderground v.1.15,2013-05-29 12:42:00,
2013-05-29 08:47:00,63.9,62.7,30.31,SE,134,0.0,0.0,96,0.00,,,0.00,Wunderground v.1.15,2013-05-29 12:47:00,
2013-05-29 08:53:00,64.1,62.9,30.31,SE,134,0.0,0.0,96,0.00,,,0.00,Wunderground v.1.15,2013-05-29 12:53:00,
2013-05-29 08:58:00,64.3,62.5,30.31,SE,134,0.0,0.0,94,0.00,,,0.00,Wunderground v.1.15,2013-05-29 12:58:00,
2013-05-29 09:02:00,64.6,63.1,30.31,SE,134,0.0,0.0,95,0.00,,,0.00,Wunderground v.1.15,2013-05-29 13:02:00,
2013-05-29 09:08:00,65.0,63.5,30.31,SE,134,0.0,1.0,95,0.00,,,0.00,Wunderground v.1.15,2013-05-29 13:08:00,
2013-05-29 09:13:00,65.4,63.6,30.31,SE,134,0.0,1.0,94,0.00,,,0.00,Wunderground v.1.15,2013-05-29 13:13:00,
2013-05-29 09:18:00,65.9,63.5,30.31,SE,135,0.0,1.0,92,0.00,,,0.00,Wunderground v.1.15,2013-05-29 13:18:00,
2013-05-29 09:23:00,66.3,63.9,30.31,SE,135,0.0,0.0,92,0.00,,,0.00,Wunderground v.1.15,2013-05-29 13:23:00,
2013-05-29 09:28:00,66.6,64.2,30.31,SE,135,0.0,1.0,92,0.00,,,0.00,Wunderground v.1.15,2013-05-29 13:28:00,
2013-05-29 09:33:00,66.8,63.8,30.31,SE,135,0.0,0.0,90,0.00,,,0.00,Wunderground v.1.15,2013-05-29 13:33:00,
2013-05-29 09:38:00,67.0,64.0,30.31,SE,135,0.0,0.0,90,0.00,,,0.00,Wunderground v.1.15,2013-05-29 13:38:00,
2013-05-29 09:43:00,67.3,64.3,30.31,SE,135,0.0,1.0,90,0.00,,,0.00,Wunderground v.1.15,2013-05-29 13:43:00,
2013-05-29 09:48:00,67.7,64.3,30.31,SE,135,0.0,1.0,89,0.00,,,0.00,Wunderground v.1.15,2013-05-29 13:48:00,
2013-05-29 09:53:00,68.0,64.3,30.31,SE,135,0.0,0.0,88,0.00,,,0.00,Wunderground v.1.15,2013-05-29 13:53:00,
2013-05-29 09:58:00,68.4,64.7,30.31,SE,135,0.0,0.0,88,0.00,,,0.00,Wunderground v.1.15,2013-05-29 13:58:00,
2013-05-29 10:03:00,68.7,65.0,30.31,SE,135,0.0,0.0,88,0.00,,,0.00,Wunderground v.1.15,2013-05-29 14:03:00,
2013-05-29 10:08:00,69.1,65.1,30.30,SE,135,0.0,1.0,87,0.00,,,0.00,Wunderground v.1.15,2013-05-29 14:08:00,
2013-05-29 10:13:00,69.5,64.8,30.30,SE,130,0.0,1.0,85,0.00,,,0.00,Wunderground v.1.15,2013-05-29 14:13:00,
2013-05-29 10:18:00,70.0,64.9,30.30,SE,130,0.0,1.0,84,0.00,,,0.00,Wunderground v.1.15,2013-05-29 14:18:00,
2013-05-29 10:23:00,70.6,66.2,30.30,SE,130,0.0,1.0,86,0.00,,,0.00,Wunderground v.1.15,2013-05-29 14:23:00,
2013-05-29 10:28:00,71.0,65.9,30.30,SE,130,0.0,1.0,84,0.00,,,0.00,Wunderground v.1.15,2013-05-29 14:28:00,
2013-05-29 10:33:00,71.5,65.7,30.30,SSE,148,0.0,3.0,82,0.00,,,0.00,Wunderground v.1.15,2013-05-29 14:33:00,
2013-05-29 10:38:00,72.0,65.5,30.30,SE,144,0.0,3.0,80,0.00,,,0.00,Wunderground v.1.15,2013-05-29 14:38:00,
2013-05-29 10:43:00,72.4,65.2,30.29,South,175,0.0,2.0,78,0.00,,,0.00,Wunderground v.1.15,2013-05-29 14:43:00,
2013-05-29 10:48:00,72.7,65.1,30.29,South,175,0.0,2.0,77,0.00,,,0.00,Wunderground v.1.15,2013-05-29 14:48:00,
2013-05-29 10:53:00,73.1,65.5,30.29,South,175,0.0,1.0,77,0.00,,,0.00,Wunderground v.1.15,2013-05-29 14:53:00,
2013-05-29 10:58:00,73.6,67.0,30.29,South,175,2.0,2.0,80,0.00,,,0.00,Wunderground v.1.15,2013-05-29 14:58:00,
2013-05-29 11:03:00,74.2,66.5,30.29,South,175,0.0,0.0,77,0.00,,,0.00,Wunderground v.1.15,2013-05-29 15:03:00,
2013-05-29 11:08:00,74.9,67.2,30.29,SSE,165,0.0,1.0,77,0.00,,,0.00,Wunderground v.1.15,2013-05-29 15:08:00,
2013-05-29 11:13:00,75.2,66.7,30.29,North,5,1.0,2.0,75,0.00,,,0.00,Wunderground v.1.15,2013-05-29 15:13:00,
2013-05-29 11:18:00,75.5,67.4,30.30,North,5,0.0,2.0,76,0.00,,,0.00,Wunderground v.1.15,2013-05-29 15:18:00,
2013-05-29 11:23:00,75.6,67.5,30.30,North,5,0.0,1.0,76,0.00,,,0.00,Wunderground v.1.15,2013-05-29 15:23:00,
2013-05-29 11:28:00,75.9,68.2,30.30,North,5,0.0,2.0,77,0.00,,,0.00,Wunderground v.1.15,2013-05-29 15:28:00,
2013-05-29 11:33:00,76.1,68.0,30.30,North,5,0.0,0.0,76,0.00,,,0.00,Wunderground v.1.15,2013-05-29 15:33:00,
2013-05-29 11:38:00,76.4,68.3,30.30,North,5,1.0,1.0,76,0.00,,,0.00,Wunderground v.1.15,2013-05-29 15:38:00,
2013-05-29 11:43:00,76.7,67.4,30.30,North,5,0.0,1.0,73,0.00,,,0.00,Wunderground v.1.15,2013-05-29 15:43:00,
2013-05-29 11:48:00,76.8,67.1,30.30,North,5,0.0,1.0,72,0.00,,,0.00,Wunderground v.1.15,2013-05-29 15:48:00,
2013-05-29 11:53:00,76.6,66.9,30.29,SSE,165,0.0,2.0,72,0.00,,,0.00,Wunderground v.1.15,2013-05-29 15:53:00,
2013-05-29 11:58:00,76.9,66.0,30.30,South,178,0.0,3.0,69,0.00,,,0.00,Wunderground v.1.15,2013-05-29 15:58:00,
2013-05-29 12:03:00,77.4,66.4,30.30,SSE,163,0.0,4.0,69,0.00,,,0.00,Wunderground v.1.15,2013-05-29 16:03:00,
2013-05-29 12:08:00,77.9,67.3,30.29,SSE,163,0.0,4.0,70,0.00,,,0.00,Wunderground v.1.15,2013-05-29 16:08:00,
2013-05-29 12:13:00,78.1,66.7,30.29,SSE,163,0.0,1.0,68,0.00,,,0.00,Wunderground v.1.15,2013-05-29 16:13:00,
2013-05-29 12:18:00,78.0,67.8,30.29,SSE,163,0.0,1.0,71,0.00,,,0.00,Wunderground v.1.15,2013-05-29 16:18:00,
2013-05-29 12:24:00,78.1,66.2,30.29,South,182,0.0,3.0,67,0.00,,,0.00,Wunderground v.1.15,2013-05-29 16:24:00,
2013-05-29 12:29:00,78.5,65.3,30.29,South,177,0.0,4.0,64,0.00,,,0.00,Wunderground v.1.15,2013-05-29 16:29:00,
2013-05-29 12:34:00,78.8,66.9,30.29,South,173,2.0,2.0,67,0.00,,,0.00,Wunderground v.1.15,2013-05-29 16:34:00,
2013-05-29 12:39:00,79.2,65.5,30.29,NE,44,1.0,4.0,63,0.00,,,0.00,Wunderground v.1.15,2013-05-29 16:39:00,
2013-05-29 12:44:00,79.4,63.8,30.29,SSW,195,0.0,3.0,59,0.00,,,0.00,Wunderground v.1.15,2013-05-29 16:44:00,
2013-05-29 12:49:00,79.5,65.8,30.29,South,180,2.0,4.0,63,0.00,,,0.00,Wunderground v.1.15,2013-05-29 16:49:00,
2013-05-29 12:54:00,79.8,66.1,30.29,NNE,27,0.0,2.0,63,0.00,,,0.00,Wunderground v.1.15,2013-05-29 16:54:00,
2013-05-29 12:59:00,79.9,65.2,30.29,SSE,162,3.0,4.0,61,0.00,,,0.00,Wunderground v.1.15,2013-05-29 16:59:00,
2013-05-29 13:04:00,80.1,67.3,30.29,South,171,0.0,3.0,65,0.00,,,0.00,Wunderground v.1.15,2013-05-29 17:04:00,
2013-05-29 13:09:00,80.4,65.2,30.29,South,177,0.0,3.0,60,0.00,,,0.00,Wunderground v.1.15,2013-05-29 17:09:00,
2013-05-29 13:14:00,80.6,66.8,30.28,South,175,5.0,5.0,63,0.00,,,0.00,Wunderground v.1.15,2013-05-29 17:14:00,
2013-05-29 13:19:00,80.7,66.9,30.28,SSE,165,0.0,5.0,63,0.00,,,0.00,Wunderground v.1.15,2013-05-29 17:19:00,
2013-05-29 13:24:00,80.8,66.6,30.28,SSE,148,2.0,4.0,62,0.00,,,0.00,Wunderground v.1.15,2013-05-29 17:24:00,
2013-05-29 13:29:00,80.8,66.6,30.28,SSE,160,2.0,5.0,62,0.00,,,0.00,Wunderground v.1.15,2013-05-29 17:29:00,
2013-05-29 13:34:00,80.7,66.0,30.27,South,169,2.0,5.0,61,0.00,,,0.00,Wunderground v.1.15,2013-05-29 17:34:00,
2013-05-29 13:39:00,80.6,67.3,30.27,SSE,157,0.0,6.0,64,0.00,,,0.00,Wunderground v.1.15,2013-05-29 17:39:00,
2013-05-29 13:44:00,80.4,67.6,30.28,SSE,165,0.0,8.0,65,0.00,,,0.00,Wunderground v.1.15,2013-05-29 17:44:00,
2013-05-29 13:49:00,80.5,67.2,30.27,South,171,0.0,8.0,64,0.00,,,0.00,Wunderground v.1.15,2013-05-29 17:49:00,
2013-05-29 13:54:00,80.6,66.8,30.27,SSE,167,3.0,5.0,63,0.00,,,0.00,Wunderground v.1.15,2013-05-29 17:54:00,
2013-05-29 13:59:00,80.7,67.8,30.27,South,178,4.0,5.0,65,0.00,,,0.00,Wunderground v.1.15,2013-05-29 17:59:00,
2013-05-29 14:04:00,80.8,66.6,30.27,South,169,0.0,5.0,62,0.00,,,0.00,Wunderground v.1.15,2013-05-29 18:04:00,
2013-05-29 14:09:00,80.9,68.0,30.27,SSE,162,1.0,5.0,65,0.00,,,0.00,Wunderground v.1.15,2013-05-29 18:09:00,
2013-05-29 14:14:00,80.5,67.2,30.27,NE,54,1.0,6.0,64,0.00,,,0.00,Wunderground v.1.15,2013-05-29 18:14:00,
2013-05-29 14:19:00,80.5,68.5,30.26,SSE,159,2.0,6.0,67,0.00,,,0.00,Wunderground v.1.15,2013-05-29 18:19:00,
2013-05-29 14:24:00,80.6,67.7,30.26,NNE,15,0.0,5.0,65,0.00,,,0.00,Wunderground v.1.15,2013-05-29 18:24:00,
2013-05-29 14:29:00,80.9,68.0,30.26,NE,37,0.0,5.0,65,0.00,,,0.00,Wunderground v.1.15,2013-05-29 18:29:00,
2013-05-29 14:34:00,81.0,68.1,30.27,SSE,150,4.0,5.0,65,0.00,,,0.00,Wunderground v.1.15,2013-05-29 18:34:00,
2013-05-29 14:39:00,81.0,67.7,30.26,SE,143,2.0,6.0,64,0.00,,,0.00,Wunderground v.1.15,2013-05-29 18:39:00,
2013-05-29 14:44:00,80.6,68.6,30.26,South,172,1.0,3.0,67,0.00,,,0.00,Wunderground v.1.15,2013-05-29 18:44:00,
2013-05-29 14:49:00,80.3,67.9,30.26,South,169,2.0,6.0,66,0.00,,,0.00,Wunderground v.1.15,2013-05-29 18:49:00,
2013-05-29 14:54:00,80.0,68.1,30.26,South,180,1.0,3.0,67,0.00,,,0.00,Wunderground v.1.15,2013-05-29 18:54:00,
2013-05-29 14:59:00,79.5,67.6,30.26,SSE,148,1.0,3.0,67,0.00,,,0.00,Wunderground v.1.15,2013-05-29 18:59:00,
2013-05-29 15:04:00,79.2,67.7,30.26,NNE,27,0.0,5.0,68,0.00,,,0.00,Wunderground v.1.15,2013-05-29 19:04:00,
2013-05-29 15:09:00,79.3,68.2,30.26,South,171,0.0,5.0,69,0.00,,,0.00,Wunderground v.1.15,2013-05-29 19:09:00,
2013-05-29 15:14:00,79.5,67.6,30.26,SSE,163,0.0,5.0,67,0.00,,,0.00,Wunderground v.1.15,2013-05-29 19:14:00,
2013-05-29 15:19:00,79.6,68.1,30.26,South,170,2.0,11.0,68,0.00,,,0.00,Wunderground v.1.15,2013-05-29 19:19:00,
2013-05-29 15:24:00,79.7,68.6,30.25,SSE,157,3.0,5.0,69,0.00,,,0.00,Wunderground v.1.15,2013-05-29 19:24:00,
2013-05-29 15:29:00,79.6,67.2,30.25,SE,142,0.0,7.0,66,0.00,,,0.00,Wunderground v.1.15,2013-05-29 19:29:00,
2013-05-29 15:34:00,79.6,68.1,30.25,South,178,1.0,4.0,68,0.00,,,0.00,Wunderground v.1.15,2013-05-29 19:34:00,
2013-05-29 15:39:00,79.5,67.6,30.25,SSW,194,0.0,11.0,67,0.00,,,0.00,Wunderground v.1.15,2013-05-29 19:39:00,
2013-05-29 15:44:00,79.5,68.4,30.25,SE,146,0.0,6.0,69,0.00,,,0.00,Wunderground v.1.15,2013-05-29 19:44:00,
2013-05-29 15:49:00,79.4,67.9,30.25,South,175,0.0,6.0,68,0.00,,,0.00,Wunderground v.1.15,2013-05-29 19:49:00,
2013-05-29 15:54:00,79.3,67.4,30.25,SSE,156,1.0,6.0,67,0.00,,,0.00,Wunderground v.1.15,2013-05-29 19:54:00,
2013-05-29 15:59:00,79.1,67.6,30.25,South,185,0.0,10.0,68,0.00,,,0.00,Wunderground v.1.15,2013-05-29 19:59:00,
2013-05-29 16:04:00,78.9,67.9,30.25,SW,215,0.0,3.0,69,0.00,,,0.00,Wunderground v.1.15,2013-05-29 20:04:00,
2013-05-29 16:09:00,78.9,67.4,30.25,SSW,196,0.0,3.0,68,0.00,,,0.00,Wunderground v.1.15,2013-05-29 20:09:00,
2013-05-29 16:14:00,78.9,67.0,30.24,South,178,2.0,9.0,67,0.00,,,0.00,Wunderground v.1.15,2013-05-29 20:14:00,
2013-05-29 16:19:00,78.7,66.8,30.24,South,177,3.0,9.0,67,0.00,,,0.00,Wunderground v.1.15,2013-05-29 20:19:00,
2013-05-29 16:24:00,78.7,67.2,30.25,SSE,167,4.0,7.0,68,0.00,,,0.00,Wunderground v.1.15,2013-05-29 20:24:00,
2013-05-29 16:29:00,78.6,66.7,30.24,SSE,154,3.0,7.0,67,0.00,,,0.00,Wunderground v.1.15,2013-05-29 20:29:00,
2013-05-29 16:34:00,78.5,66.6,30.24,SSE,160,2.0,5.0,67,0.00,,,0.00,Wunderground v.1.15,2013-05-29 20:34:00,
2013-05-29 16:39:00,78.5,66.6,30.24,ESE,123,4.0,7.0,67,0.00,,,0.00,Wunderground v.1.15,2013-05-29 20:39:00,
2013-05-29 16:44:00,78.3,66.0,30.23,SSE,163,1.0,7.0,66,0.00,,,0.00,Wunderground v.1.15,2013-05-29 20:44:00,
2013-05-29 16:49:00,78.2,66.3,30.23,South,181,1.0,7.0,67,0.00,,,0.00,Wunderground v.1.15,2013-05-29 20:49:00,
2013-05-29 16:54:00,78.3,66.0,30.23,SSE,163,8.0,8.0,66,0.00,,,0.00,Wunderground v.1.15,2013-05-29 20:54:00,
2013-05-29 16:59:00,78.4,66.1,30.23,SSE,167,1.0,10.0,66,0.00,,,0.00,Wunderground v.1.15,2013-05-29 20:59:00,
2013-05-29 17:04:00,78.5,66.2,30.22,South,180,1.0,9.0,66,0.00,,,0.00,Wunderground v.1.15,2013-05-29 21:04:00,
2013-05-29 17:09:00,78.5,66.2,30.23,SSE,167,3.0,9.0,66,0.00,,,0.00,Wunderground v.1.15,2013-05-29 21:09:00,
2013-05-29 17:14:00,78.3,65.6,30.23,South,169,0.0,11.0,65,0.00,,,0.00,Wunderground v.1.15,2013-05-29 21:14:00,
2013-05-29 17:19:00,78.2,65.9,30.23,South,169,4.0,11.0,66,0.00,,,0.00,Wunderground v.1.15,2013-05-29 21:19:00,
2013-05-29 17:24:00,78.1,64.9,30.23,South,173,1.0,6.0,64,0.00,,,0.00,Wunderground v.1.15,2013-05-29 21:24:00,
2013-05-29 17:29:00,78.0,65.3,30.23,SSE,163,3.0,6.0,65,0.00,,,0.00,Wunderground v.1.15,2013-05-29 21:29:00,
2013-05-29 17:34:00,77.8,65.5,30.23,SSW,198,3.0,10.0,66,0.00,,,0.00,Wunderground v.1.15,2013-05-29 21:34:00,
2013-05-29 17:39:00,77.7,65.0,30.23,East,86,0.0,10.0,65,0.00,,,0.00,Wunderground v.1.15,2013-05-29 21:39:00,
2013-05-29 17:44:00,77.6,64.9,30.23,SW,234,1.0,7.0,65,0.00,,,0.00,Wunderground v.1.15,2013-05-29 21:44:00,
2013-05-29 17:49:00,77.6,64.9,30.23,SE,145,0.0,7.0,65,0.00,,,0.00,Wunderground v.1.15,2013-05-29 21:49:00,
2013-05-29 17:54:00,77.6,64.9,30.23,SE,142,3.0,4.0,65,0.00,,,0.00,Wunderground v.1.15,2013-05-29 21:54:00,
2013-05-29 17:59:00,77.6,64.9,30.23,SE,145,3.0,5.0,65,0.00,,,0.00,Wunderground v.1.15,2013-05-29 21:59:00,
2013-05-29 18:04:00,77.4,64.7,30.23,SSW,195,2.0,3.0,65,0.00,,,0.00,Wunderground v.1.15,2013-05-29 22:04:00,
2013-05-29 18:09:00,77.4,64.3,30.23,SSE,154,2.0,4.0,64,0.00,,,0.00,Wunderground v.1.15,2013-05-29 22:09:00,
2013-05-29 18:15:00,77.3,64.6,30.23,SSE,152,1.0,5.0,65,0.00,,,0.00,Wunderground v.1.15,2013-05-29 22:15:00,
2013-05-29 18:20:00,77.2,64.5,30.23,SSW,210,0.0,1.0,65,0.00,,,0.00,Wunderground v.1.15,2013-05-29 22:20:00,
2013-05-29 18:25:00,77.1,64.0,30.23,SSW,212,1.0,3.0,64,0.00,,,0.00,Wunderground v.1.15,2013-05-29 22:25:00,
2013-05-29 18:30:00,77.0,63.4,30.23,SSE,163,4.0,4.0,63,0.00,,,0.00,Wunderground v.1.15,2013-05-29 22:30:00,
2013-05-29 18:35:00,76.8,63.7,30.23,SSE,165,0.0,5.0,64,0.00,,,0.00,Wunderground v.1.15,2013-05-29 22:35:00,
2013-05-29 18:40:00,76.7,63.6,30.23,SSE,163,1.0,1.0,64,0.00,,,0.00,Wunderground v.1.15,2013-05-29 22:40:00,
2013-05-29 18:45:00,76.6,64.0,30.24,SSE,167,0.0,6.0,65,0.00,,,0.00,Wunderground v.1.15,2013-05-29 22:45:00,
2013-05-29 18:50:00,76.5,64.3,30.23,SE,136,1.0,2.0,66,0.00,,,0.00,Wunderground v.1.15,2013-05-29 22:50:00,
2013-05-29 18:55:00,76.4,64.6,30.23,SSE,153,1.0,4.0,67,0.00,,,0.00,Wunderground v.1.15,2013-05-29 22:55:00,
2013-05-29 19:00:00,76.3,65.0,30.24,SSE,160,1.0,1.0,68,0.00,,,0.00,Wunderground v.1.15,2013-05-29 23:00:00,
2013-05-29 19:05:00,76.2,65.3,30.23,South,169,4.0,4.0,69,0.00,,,0.00,Wunderground v.1.15,2013-05-29 23:05:00,
2013-05-29 19:10:00,76.0,64.7,30.24,SSE,149,2.0,4.0,68,0.00,,,0.00,Wunderground v.1.15,2013-05-29 23:10:00,
2013-05-29 19:15:00,75.9,64.6,30.24,SE,140,0.0,5.0,68,0.00,,,0.00,Wunderground v.1.15,2013-05-29 23:15:00,
2013-05-29 19:20:00,75.8,64.1,30.24,SE,131,0.0,5.0,67,0.00,,,0.00,Wunderground v.1.15,2013-05-29 23:20:00,
2013-05-29 19:25:00,75.6,63.9,30.24,SSE,164,1.0,5.0,67,0.00,,,0.00,Wunderground v.1.15,2013-05-29 23:25:00,
2013-05-29 19:30:00,75.4,64.1,30.24,SSE,150,1.0,1.0,68,0.00,,,0.00,Wunderground v.1.15,2013-05-29 23:30:00,
2013-05-29 19:35:00,75.2,63.9,30.24,South,173,0.0,4.0,68,0.00,,,0.00,Wunderground v.1.15,2013-05-29 23:35:00,
2013-05-29 19:40:00,75.0,64.1,30.24,SSE,167,0.0,1.0,69,0.00,,,0.00,Wunderground v.1.15,2013-05-29 23:40:00,
2013-05-29 19:45:00,74.7,64.3,30.24,SSE,156,0.0,2.0,70,0.00,,,0.00,Wunderground v.1.15,2013-05-29 23:45:00,
2013-05-29 19:50:00,74.5,64.5,30.24,South,171,0.0,0.0,71,0.00,,,0.00,Wunderground v.1.15,2013-05-29 23:50:00,
2013-05-29 19:55:00,74.4,64.4,30.25,South,172,0.0,2.0,71,0.00,,,0.00,Wunderground v.1.15,2013-05-29 23:55:00,
2013-05-29 20:00:00,74.1,64.5,30.25,South,177,0.0,0.0,72,0.00,,,0.00,Wunderground v.1.15,2013-05-30 00:00:00,
2013-05-29 20:05:00,73.9,64.3,30.25,South,175,0.0,1.0,72,0.00,,,0.00,Wunderground v.1.15,2013-05-30 00:05:00,
2013-05-29 20:10:00,73.7,64.1,30.24,South,175,0.0,0.0,72,0.00,,,0.00,Wunderground v.1.15,2013-05-30 00:10:00,
2013-05-29 20:15:00,73.4,64.2,30.24,South,175,0.0,2.0,73,0.00,,,0.00,Wunderground v.1.15,2013-05-30 00:15:00,
2013-05-29 20:20:00,73.1,64.3,30.24,South,175,0.0,0.0,74,0.00,,,0.00,Wunderground v.1.15,2013-05-30 00:20:00,
2013-05-29 20:25:00,72.9,64.1,30.24,South,175,0.0,1.0,74,0.00,,,0.00,Wunderground v.1.15,2013-05-30 00:25:00,
2013-05-29 20:30:00,72.6,64.2,30.24,South,175,0.0,0.0,75,0.00,,,0.00,Wunderground v.1.15,2013-05-30 00:30:00,
2013-05-29 20:35:00,72.3,63.9,30.24,South,175,0.0,0.0,75,0.00,,,0.00,Wunderground v.1.15,2013-05-30 00:35:00,
2013-05-29 20:41:00,72.0,64.0,30.24,South,175,0.0,0.0,76,0.00,,,0.00,Wunderground v.1.15,2013-05-30 00:41:00,
2013-05-29 20:46:00,71.8,63.8,30.24,South,175,0.0,0.0,76,0.00,,,0.00,Wunderground v.1.15,2013-05-30 00:46:00,
2013-05-29 20:51:00,71.5,63.9,30.25,South,175,0.0,0.0,77,0.00,,,0.00,Wunderground v.1.15,2013-05-30 00:51:00,
2013-05-29 20:56:00,71.3,64.1,30.25,South,175,0.0,0.0,78,0.00,,,0.00,Wunderground v.1.15,2013-05-30 00:56:00,
2013-05-29 21:01:00,71.1,64.3,30.25,South,175,0.0,0.0,79,0.00,,,0.00,Wunderground v.1.15,2013-05-30 01:01:00,
2013-05-29 21:06:00,70.8,63.6,30.25,South,175,0.0,0.0,78,0.00,,,0.00,Wunderground v.1.15,2013-05-30 01:06:00,
2013-05-29 21:11:00,70.5,64.0,30.25,South,175,0.0,0.0,80,0.00,,,0.00,Wunderground v.1.15,2013-05-30 01:11:00,
2013-05-29 21:16:00,70.2,63.7,30.25,South,175,0.0,0.0,80,0.00,,,0.00,Wunderground v.1.15,2013-05-30 01:16:00,
2013-05-29 21:21:00,69.9,63.4,30.25,South,175,0.0,0.0,80,0.00,,,0.00,Wunderground v.1.15,2013-05-30 01:21:00,
2013-05-29 21:26:00,69.7,63.3,30.25,South,175,0.0,0.0,80,0.00,,,0.00,Wunderground v.1.15,2013-05-30 01:26:00,
2013-05-29 21:31:00,69.5,63.4,30.25,South,175,0.0,0.0,81,0.00,,,0.00,Wunderground v.1.15,2013-05-30 01:31:00,
2013-05-29 21:36:00,69.2,63.1,30.25,South,175,0.0,0.0,81,0.00,,,0.00,Wunderground v.1.15,2013-05-30 01:36:00,
2013-05-29 21:41:00,68.9,63.9,30.26,South,175,0.0,0.0,84,0.00,,,0.00,Wunderground v.1.15,2013-05-30 01:41:00,
2013-05-29 21:46:00,68.5,63.5,30.26,South,175,0.0,0.0,84,0.00,,,0.00,Wunderground v.1.15,2013-05-30 01:46:00,
2013-05-29 21:51:00,68.2,63.2,30.26,South,175,0.0,0.0,84,0.00,,,0.00,Wunderground v.1.15,2013-05-30 01:51:00,
2013-05-29 21:56:00,67.9,62.9,30.27,South,175,0.0,0.0,84,0.00,,,0.00,Wunderground v.1.15,2013-05-30 01:56:00,
2013-05-29 22:01:00,67.6,62.9,30.27,South,175,0.0,0.0,85,0.00,,,0.00,Wunderground v.1.15,2013-05-30 02:01:00,
2013-05-29 22:06:00,67.4,63.1,30.27,South,175,0.0,0.0,86,0.00,,,0.00,Wunderground v.1.15,2013-05-30 02:06:00,
2013-05-29 22:11:00,66.9,62.9,30.27,South,175,0.0,0.0,87,0.00,,,0.00,Wunderground v.1.15,2013-05-30 02:11:00,
2013-05-29 22:16:00,66.3,62.3,30.28,South,175,0.0,0.0,87,0.00,,,0.00,Wunderground v.1.15,2013-05-30 02:16:00,
2013-05-29 22:21:00,66.0,62.3,30.28,South,175,0.0,0.0,88,0.00,,,0.00,Wunderground v.1.15,2013-05-30 02:21:00,
2013-05-29 22:26:00,65.8,62.5,30.28,South,175,0.0,0.0,89,0.00,,,0.00,Wunderground v.1.15,2013-05-30 02:26:00,
2013-05-29 22:31:00,65.6,62.3,30.28,South,175,0.0,0.0,89,0.00,,,0.00,Wunderground v.1.15,2013-05-30 02:31:00,
2013-05-29 22:36:00,65.4,62.4,30.29,South,175,0.0,0.0,90,0.00,,,0.00,Wunderground v.1.15,2013-05-30 02:36:00,
2013-05-29 22:41:00,65.2,62.2,30.29,South,175,0.0,0.0,90,0.00,,,0.00,Wunderground v.1.15,2013-05-30 02:41:00,
2013-05-29 22:46:00,65.0,62.0,30.29,South,175,0.0,0.0,90,0.00,,,0.00,Wunderground v.1.15,2013-05-30 02:46:00,
2013-05-29 22:51:00,64.8,62.1,30.29,South,175,0.0,0.0,91,0.00,,,0.00,Wunderground v.1.15,2013-05-30 02:51:00,
2013-05-29 22:56:00,64.7,62.0,30.28,South,175,0.0,0.0,91,0.00,,,0.00,Wunderground v.1.15,2013-05-30 02:56:00,
2013-05-29 23:01:00,64.4,61.7,30.29,South,175,0.0,0.0,91,0.00,,,0.00,Wunderground v.1.15,2013-05-30 03:01:00,
2013-05-29 23:06:00,64.2,61.8,30.29,South,175,0.0,0.0,92,0.00,,,0.00,Wunderground v.1.15,2013-05-30 03:06:00,
2013-05-29 23:11:00,64.0,61.6,30.29,South,175,0.0,0.0,92,0.00,,,0.00,Wunderground v.1.15,2013-05-30 03:11:00,
2013-05-29 23:16:00,63.8,61.7,30.29,South,175,0.0,0.0,93,0.00,,,0.00,Wunderground v.1.15,2013-05-30 03:16:00,
2013-05-29 23:21:00,63.6,61.5,30.29,South,175,0.0,0.0,93,0.00,,,0.00,Wunderground v.1.15,2013-05-30 03:21:00,
2013-05-29 23:26:00,63.4,61.3,30.29,South,175,0.0,0.0,93,0.00,,,0.00,Wunderground v.1.15,2013-05-30 03:26:00,
2013-05-29 23:31:00,63.3,61.5,30.28,South,175,0.0,0.0,94,0.00,,,0.00,Wunderground v.1.15,2013-05-30 03:31:00,
2013-05-29 23:36:00,63.1,61.3,30.28,South,175,0.0,0.0,94,0.00,,,0.00,Wunderground v.1.15,2013-05-30 03:36:00,
2013-05-29 23:41:00,63.0,61.2,30.29,South,175,0.0,0.0,94,0.00,,,0.00,Wunderground v.1.15,2013-05-30 03:41:00,
2013-05-29 23:47:00,62.8,61.3,30.29,South,175,0.0,0.0,95,0.00,,,0.00,Wunderground v.1.15,2013-05-30 03:47:00,
2013-05-29 23:52:00,62.6,61.1,30.30,South,175,0.0,0.0,95,0.00,,,0.00,Wunderground v.1.15,2013-05-30 03:52:00,
2013-05-29 23:57:00,62.4,60.9,30.30,South,175,0.0,0.0,95,0.00,,,0.00,Wunderground v.1.15,2013-05-30 03:57:00,